Date,TemperatureHighF,TemperatureAvgF,TemperatureLowF,DewpointHighF,DewpointAvgF,DewpointLowF,HumidityHigh,HumidityAvg,HumidityLow,PressureMaxIn,PressureMinIn,WindSpeedMaxMPH,WindSpeedAvgMPH,GustSpeedMaxMPH,PrecipitationSumIn
2013-3-1,75,63,48,52,50,45,91,65,41,30.43,30.22,11,4,18,0.00
2013-3-2,73,58,50,52,48,44,95,70,41,30.24,30.10,12,3,17,0.00
2013-3-3,59,51,48,52,49,46,97,92,76,30.13,30.07,12,3,13,0.00
2013-3-4,59,49,43,49,45,40,96,87,68,30.16,30.08,17,2,17,0.00
2013-3-5,55,49,44,45,42,40,94,81,64,30.10,29.93,12,3,19,0.00
2013-3-6,55,50,45,49,44,40,95,80,56,30.09,29.93,18,5,22,0.00
2013-3-7,58,48,42,46,42,39,94,81,50,30.02,29.85,8,1,14,0.00
2013-3-8,57,48,44,48,44,39,96,84,69,30.10,29.82,16,3,19,0.00
2013-3-9,59,51,44,48,44,39,89,76,60,30.32,30.10,8,2,14,0.00
2013-3-10,63,50,41,49,44,38,94,81,51,30.35,30.27,12,3,14,0.00
2013-3-11,70,54,44,52,44,39,95,74,40,30.27,30.12,12,3,13,0.00
2013-3-12,69,53,42,55,47,40,95,82,56,30.76,30.07,10,2,11,0.00
2013-3-13,79,58,44,55,49,41,93,74,37,30.73,30.06,10,3,14,0.00
2013-3-14,66,54,44,55,49,43,98,84,63,30.61,30.10,10,1,11,0.00
2013-3-15,72,57,47,54,48,41,88,73,49,30.14,30.05,10,2,17,0.00
2013-3-16,68,53,47,54,49,45,98,86,60,30.11,30.03,11,3,17,0.00
2013-3-17,65,53,46,51,46,43,91,78,55,30.14,30.06,13,3,16,0.00
2013-3-18,63,51,42,50,45,40,93,80,56,30.14,30.04,12,2,17,0.00
2013-3-19,71,55,47,50,45,38,90,71,31,30.17,30.06,11,4,17,0.00
2013-3-20,65,57,52,54,50,35,94,79,35,30.75,30.08,11,2,14,0.00
2013-3-21,62,54,45,53,47,42,97,79,52,30.72,30.00,12,3,13,0.00
2013-3-22,71,54,44,45,39,19,91,64,15,30.08,30.01,11,3,13,0.00
2013-3-23,69,53,41,45,39,27,80,62,24,30.13,30.05,10,3,13,0.00
2013-3-24,65,52,42,49,43,36,90,73,45,30.63,30.00,10,2,14,0.00
2013-3-25,61,51,42,51,45,41,96,83,65,30.47,30.01,11,3,14,0.00
2013-3-26,63,51,44,49,46,41,92,81,58,30.01,29.95,13,4,17,0.00
2013-3-27,66,54,46,54,49,43,96,84,59,30.63,29.96,16,3,19,0.00
2013-3-28,67,57,52,56,53,49,96,86,66,30.10,30.02,12,2,17,0.00
2013-3-29,72,55,48,56,51,46,97,86,54,30.69,30.05,16,4,21,0.00
2013-3-30,67,56,50,54,50,-100,98,84,56,30.67,30.01,11,2,19,0.00
2013-3-31,68,58,52,56,51,46,97,79,48,30.65,30.00,13,2,24,0.00